sensor_id;sensor_type;location;lat;lon;timestamp;temperature;humidity
14884;DHT22;7534;50.762;7.000;2024-02-23T02:04:57;4.50;83.80
14884;DHT22;7534;50.762;7.000;2024-02-23T02:07:23;4.50;83.30
14884;DHT22;7534;50.762;7.000;2024-02-23T02:09:50;4.50;83.10
14884;DHT22;7534;50.762;7.000;2024-02-23T02:12:29;4.50;83.70
14884;DHT22;7534;50.762;7.000;2024-02-23T02:14:54;4.40;83.20
14884;DHT22;7534;50.762;7.000;2024-02-23T02:17:21;4.40;82.90
14884;DHT22;7534;50.762;7.000;2024-02-23T02:19:48;4.40;82.90
14884;DHT22;7534;50.762;7.000;2024-02-23T02:22:14;4.40;83.00
14884;DHT22;7534;50.762;7.000;2024-02-23T02:24:39;4.40;82.90
14884;DHT22;7534;50.762;7.000;2024-02-23T02:27:09;4.40;82.40
14884;DHT22;7534;50.762;7.000;2024-02-23T02:29:35;4.30;82.80
14884;DHT22;7534;50.762;7.000;2024-02-23T02:32:01;4.20;83.10
14884;DHT22;7534;50.762;7.000;2024-02-23T02:34:28;4.10;83.60
14884;DHT22;7534;50.762;7.000;2024-02-23T02:36:54;4.10;83.20
14884;DHT22;7534;50.762;7.000;2024-02-23T02:39:20;4.10;82.90
14884;DHT22;7534;50.762;7.000;2024-02-23T02:41:48;4.10;83.40
14884;DHT22;7534;50.762;7.000;2024-02-23T02:44:14;4.10;82.90
14884;DHT22;7534;50.762;7.000;2024-02-23T02:46:40;4.20;82.30
14884;DHT22;7534;50.762;7.000;2024-02-23T02:49:06;4.30;81.90
14884;DHT22;7534;50.762;7.000;2024-02-23T02:51:32;4.40;81.30
14884;DHT22;7534;50.762;7.000;2024-02-23T02:53:58;4.30;81.60
14884;DHT22;7534;50.762;7.000;2024-02-23T02:56:23;4.30;81.30
14884;DHT22;7534;50.762;7.000;2024-02-23T02:58:49;4.30;80.60
14884;DHT22;7534;50.762;7.000;2024-02-23T03:01:15;4.30;81.10
14884;DHT22;7534;50.762;7.000;2024-02-23T03:03:41;4.40;80.00
14884;DHT22;7534;50.762;7.000;2024-02-23T03:06:06;4.30;80.80
14884;DHT22;7534;50.762;7.000;2024-02-23T03:08:33;4.20;80.90
14884;DHT22;7534;50.762;7.000;2024-02-23T03:10:59;4.10;81.30
14884;DHT22;7534;50.762;7.000;2024-02-23T03:13:24;4.10;81.30
14884;DHT22;7534;50.762;7.000;2024-02-23T03:15:50;4.10;81.00
14884;DHT22;7534;50.762;7.000;2024-02-23T03:18:16;4.00;81.00
14884;DHT22;7534;50.762;7.000;2024-02-23T03:20:42;4.00;80.40
14884;DHT22;7534;50.762;7.000;2024-02-23T03:23:08;3.80;81.20
14884;DHT22;7534;50.762;7.000;2024-02-23T03:25:33;3.70;82.00
14884;DHT22;7534;50.762;7.000;2024-02-23T03:27:59;3.70;82.70
14884;DHT22;7534;50.762;7.000;2024-02-23T03:30:25;3.60;82.70
14884;DHT22;7534;50.762;7.000;2024-02-23T03:32:51;3.50;83.40
14884;DHT22;7534;50.762;7.000;2024-02-23T03:35:17;3.50;83.20
14884;DHT22;7534;50.762;7.000;2024-02-23T03:37:43;3.50;83.00
14884;DHT22;7534;50.762;7.000;2024-02-23T03:40:09;3.60;82.70
14884;DHT22;7534;50.762;7.000;2024-02-23T03:42:35;3.70;82.80
14884;DHT22;7534;50.762;7.000;2024-02-23T03:45:01;3.60;82.90
14884;DHT22;7534;50.762;7.000;2024-02-23T03:47:27;3.60;82.60
14884;DHT22;7534;50.762;7.000;2024-02-23T03:49:54;3.60;82.90
14884;DHT22;7534;50.762;7.000;2024-02-23T03:52:19;3.60;82.70
14884;DHT22;7534;50.762;7.000;2024-02-23T03:54:45;3.60;83.00
14884;DHT22;7534;50.762;7.000;2024-02-23T03:57:11;3.70;82.50
14884;DHT22;7534;50.762;7.000;2024-02-23T03:59:37;3.70;82.10
14884;DHT22;7534;50.762;7.000;2024-02-23T04:02:03;3.80;82.10
14884;DHT22;7534;50.762;7.000;2024-02-23T04:04:30;3.90;81.60
14884;DHT22;7534;50.762;7.000;2024-02-23T04:06:56;3.70;81.80
14884;DHT22;7534;50.762;7.000;2024-02-23T04:09:22;3.80;81.50
14884;DHT22;7534;50.762;7.000;2024-02-23T04:11:48;3.80;82.00
14884;DHT22;7534;50.762;7.000;2024-02-23T04:14:14;3.90;81.50
14884;DHT22;7534;50.762;7.000;2024-02-23T04:16:39;3.90;81.20
14884;DHT22;7534;50.762;7.000;2024-02-23T04:19:05;3.90;81.30
14884;DHT22;7534;50.762;7.000;2024-02-23T04:21:31;3.80;82.20
14884;DHT22;7534;50.762;7.000;2024-02-23T04:23:56;3.90;82.20
14884;DHT22;7534;50.762;7.000;2024-02-23T04:26:23;4.00;81.90
14884;DHT22;7534;50.762;7.000;2024-02-23T04:28:48;4.00;81.50
14884;DHT22;7534;50.762;7.000;2024-02-23T04:31:14;4.10;81.70
14884;DHT22;7534;50.762;7.000;2024-02-23T04:33:40;4.10;81.60
14884;DHT22;7534;50.762;7.000;2024-02-23T04:36:06;4.10;81.70
14884;DHT22;7534;50.762;7.000;2024-02-23T04:38:32;4.10;82.00
14884;DHT22;7534;50.762;7.000;2024-02-23T04:41:03;4.10;81.60
14884;DHT22;7534;50.762;7.000;2024-02-23T04:43:29;4.20;81.40
14884;DHT22;7534;50.762;7.000;2024-02-23T04:45:55;4.30;81.00
14884;DHT22;7534;50.762;7.000;2024-02-23T04:48:20;4.20;80.70
14884;DHT22;7534;50.762;7.000;2024-02-23T04:50:46;4.00;81.40
14884;DHT22;7534;50.762;7.000;2024-02-23T04:53:12;4.00;81.50
14884;DHT22;7534;50.762;7.000;2024-02-23T04:55:38;4.00;81.90
14884;DHT22;7534;50.762;7.000;2024-02-23T04:58:03;3.90;82.70
14884;DHT22;7534;50.762;7.000;2024-02-23T05:00:29;3.90;82.30
14884;DHT22;7534;50.762;7.000;2024-02-23T05:02:59;3.80;83.20
14884;DHT22;7534;50.762;7.000;2024-02-23T05:05:28;3.80;82.70
14884;DHT22;7534;50.762;7.000;2024-02-23T05:07:57;3.80;83.30
14884;DHT22;7534;50.762;7.000;2024-02-23T05:10:23;3.80;82.80
14884;DHT22;7534;50.762;7.000;2024-02-23T05:12:49;3.60;83.10
14884;DHT22;7534;50.762;7.000;2024-02-23T05:15:15;3.50;83.90
14884;DHT22;7534;50.762;7.000;2024-02-23T05:17:41;3.40;84.30
14884;DHT22;7534;50.762;7.000;2024-02-23T05:20:07;3.40;84.00
14884;DHT22;7534;50.762;7.000;2024-02-23T05:22:36;3.50;84.10
14884;DHT22;7534;50.762;7.000;2024-02-23T05:25:02;3.60;83.70
14884;DHT22;7534;50.762;7.000;2024-02-23T05:27:30;3.50;83.50
14884;DHT22;7534;50.762;7.000;2024-02-23T05:29:56;3.50;83.80
14884;DHT22;7534;50.762;7.000;2024-02-23T05:32:21;3.70;82.90
14884;DHT22;7534;50.762;7.000;2024-02-23T05:34:47;3.80;82.40
14884;DHT22;7534;50.762;7.000;2024-02-23T05:37:17;3.70;82.30
14884;DHT22;7534;50.762;7.000;2024-02-23T05:39:42;3.70;83.00
14884;DHT22;7534;50.762;7.000;2024-02-23T05:42:09;3.70;83.10
14884;DHT22;7534;50.762;7.000;2024-02-23T05:44:36;3.70;82.70
14884;DHT22;7534;50.762;7.000;2024-02-23T05:47:01;3.50;82.70
14884;DHT22;7534;50.762;7.000;2024-02-23T05:49:27;3.40;83.30
14884;DHT22;7534;50.762;7.000;2024-02-23T05:51:53;3.20;83.70
14884;DHT22;7534;50.762;7.000;2024-02-23T05:54:18;3.00;85.10
14884;DHT22;7534;50.762;7.000;2024-02-23T05:56:45;3.10;85.60
14884;DHT22;7534;50.762;7.000;2024-02-23T05:59:11;3.10;85.80
14884;DHT22;7534;50.762;7.000;2024-02-23T06:01:37;3.10;85.70
14884;DHT22;7534;50.762;7.000;2024-02-23T06:04:02;2.90;85.70
14884;DHT22;7534;50.762;7.000;2024-02-23T06:06:28;2.80;86.60
14884;DHT22;7534;50.762;7.000;2024-02-23T06:08:54;2.70;87.00
14884;DHT22;7534;50.762;7.000;2024-02-23T06:11:20;2.70;87.40
14884;DHT22;7534;50.762;7.000;2024-02-23T06:13:47;2.70;87.50
14884;DHT22;7534;50.762;7.000;2024-02-23T06:16:12;2.60;87.60
14884;DHT22;7534;50.762;7.000;2024-02-23T06:18:38;2.70;88.20
14884;DHT22;7534;50.762;7.000;2024-02-23T06:21:14;2.60;87.90
14884;DHT22;7534;50.762;7.000;2024-02-23T06:23:41;2.60;88.90
14884;DHT22;7534;50.762;7.000;2024-02-23T06:26:07;2.70;88.90
14884;DHT22;7534;50.762;7.000;2024-02-23T06:28:33;2.70;89.00
14884;DHT22;7534;50.762;7.000;2024-02-23T06:30:59;2.80;89.10
14884;DHT22;7534;50.762;7.000;2024-02-23T06:33:25;2.80;88.90
14884;DHT22;7534;50.762;7.000;2024-02-23T06:35:50;2.80;88.90
14884;DHT22;7534;50.762;7.000;2024-02-23T06:38:18;2.80;88.90
14884;DHT22;7534;50.762;7.000;2024-02-23T06:40:43;2.80;89.10
14884;DHT22;7534;50.762;7.000;2024-02-23T06:43:09;2.80;88.90
14884;DHT22;7534;50.762;7.000;2024-02-23T06:45:35;2.80;88.90
14884;DHT22;7534;50.762;7.000;2024-02-23T06:48:00;2.80;89.10
14884;DHT22;7534;50.762;7.000;2024-02-23T06:50:26;2.90;89.00
14884;DHT22;7534;50.762;7.000;2024-02-23T06:52:52;2.90;88.80
14884;DHT22;7534;50.762;7.000;2024-02-23T06:55:17;3.00;88.50
14884;DHT22;7534;50.762;7.000;2024-02-23T06:57:43;3.00;88.40
14884;DHT22;7534;50.762;7.000;2024-02-23T07:00:09;3.10;88.10
14884;DHT22;7534;50.762;7.000;2024-02-23T07:02:36;3.20;87.70
14884;DHT22;7534;50.762;7.000;2024-02-23T07:05:03;3.40;86.40
14884;DHT22;7534;50.762;7.000;2024-02-23T07:07:34;3.50;85.70
14884;DHT22;7534;50.762;7.000;2024-02-23T07:10:00;3.60;85.60
14884;DHT22;7534;50.762;7.000;2024-02-23T07:12:27;3.90;85.40
14884;DHT22;7534;50.762;7.000;2024-02-23T07:14:57;4.70;83.60
14884;DHT22;7534;50.762;7.000;2024-02-23T07:17:22;5.50;79.50
14884;DHT22;7534;50.762;7.000;2024-02-23T07:19:48;6.20;75.60
14884;DHT22;7534;50.762;7.000;2024-02-23T07:22:16;6.60;73.00
14884;DHT22;7534;50.762;7.000;2024-02-23T07:24:44;6.60;72.10
14884;DHT22;7534;50.762;7.000;2024-02-23T07:27:09;7.00;71.30
14884;DHT22;7534;50.762;7.000;2024-02-23T07:29:35;8.10;69.60
14884;DHT22;7534;50.762;7.000;2024-02-23T07:32:07;9.30;65.00
14884;DHT22;7534;50.762;7.000;2024-02-23T07:34:33;11.10;60.80
14884;DHT22;7534;50.762;7.000;2024-02-23T07:36:58;13.10;55.50
14884;DHT22;7534;50.762;7.000;2024-02-23T07:39:24;13.50;52.00
14884;DHT22;7534;50.762;7.000;2024-02-23T07:41:50;13.40;51.00
14884;DHT22;7534;50.762;7.000;2024-02-23T07:44:16;13.70;51.60
14884;DHT22;7534;50.762;7.000;2024-02-23T07:46:41;14.90;46.80
14884;DHT22;7534;50.762;7.000;2024-02-23T07:49:08;15.60;44.70
14884;DHT22;7534;50.762;7.000;2024-02-23T07:51:35;16.60;41.60
14884;DHT22;7534;50.762;7.000;2024-02-23T07:54:01;17.40;38.60
14884;DHT22;7534;50.762;7.000;2024-02-23T07:56:27;17.60;38.60
14884;DHT22;7534;50.762;7.000;2024-02-23T07:58:54;17.80;37.60
14884;DHT22;7534;50.762;7.000;2024-02-23T08:01:19;17.80;37.00
14884;DHT22;7534;50.762;7.000;2024-02-23T08:03:45;17.90;36.80
14884;DHT22;7534;50.762;7.000;2024-02-23T08:06:11;17.60;37.00
14884;DHT22;7534;50.762;7.000;2024-02-23T08:08:38;17.50;38.10
14884;DHT22;7534;50.762;7.000;2024-02-23T08:11:04;18.30;36.50
14884;DHT22;7534;50.762;7.000;2024-02-23T08:13:30;18.50;35.40
14884;DHT22;7534;50.762;7.000;2024-02-23T08:15:59;18.50;35.80
14884;DHT22;7534;50.762;7.000;2024-02-23T08:18:25;17.40;37.80
14884;DHT22;7534;50.762;7.000;2024-02-23T08:20:52;17.00;38.40
14884;DHT22;7534;50.762;7.000;2024-02-23T08:23:17;18.10;37.00
14884;DHT22;7534;50.762;7.000;2024-02-23T08:25:45;18.90;35.00
14884;DHT22;7534;50.762;7.000;2024-02-23T08:28:10;19.70;33.40
14884;DHT22;7534;50.762;7.000;2024-02-23T08:30:36;20.10;33.00
14884;DHT22;7534;50.762;7.000;2024-02-23T08:33:01;18.60;34.40
14884;DHT22;7534;50.762;7.000;2024-02-23T08:35:27;16.00;38.60
14884;DHT22;7534;50.762;7.000;2024-02-23T08:37:53;14.80;42.30
14884;DHT22;7534;50.762;7.000;2024-02-23T08:40:19;14.20;43.80
14884;DHT22;7534;50.762;7.000;2024-02-23T08:42:45;13.50;45.60
14884;DHT22;7534;50.762;7.000;2024-02-23T08:45:12;12.70;47.20
14884;DHT22;7534;50.762;7.000;2024-02-23T08:47:39;11.80;49.50
14884;DHT22;7534;50.762;7.000;2024-02-23T08:50:06;11.70;50.20
14884;DHT22;7534;50.762;7.000;2024-02-23T08:52:32;12.10;49.20
14884;DHT22;7534;50.762;7.000;2024-02-23T08:54:57;12.30;50.10
14884;DHT22;7534;50.762;7.000;2024-02-23T08:57:23;11.70;51.10
14884;DHT22;7534;50.762;7.000;2024-02-23T08:59:49;11.20;52.40
14884;DHT22;7534;50.762;7.000;2024-02-23T09:02:15;11.20;53.90
14884;DHT22;7534;50.762;7.000;2024-02-23T09:04:41;11.10;53.30
14884;DHT22;7534;50.762;7.000;2024-02-23T09:07:07;11.30;53.70
14884;DHT22;7534;50.762;7.000;2024-02-23T09:09:33;11.90;51.00
14884;DHT22;7534;50.762;7.000;2024-02-23T09:11:58;11.50;51.50
14884;DHT22;7534;50.762;7.000;2024-02-23T09:14:24;10.70;54.50
14884;DHT22;7534;50.762;7.000;2024-02-23T09:16:51;10.00;57.60
14884;DHT22;7534;50.762;7.000;2024-02-23T09:19:17;9.60;58.60
14884;DHT22;7534;50.762;7.000;2024-02-23T09:21:44;9.50;60.80
14884;DHT22;7534;50.762;7.000;2024-02-23T09:24:10;9.40;60.70
14884;DHT22;7534;50.762;7.000;2024-02-23T09:26:35;9.70;60.80
14884;DHT22;7534;50.762;7.000;2024-02-23T09:29:01;10.90;56.80
14884;DHT22;7534;50.762;7.000;2024-02-23T09:31:27;11.80;53.40
14884;DHT22;7534;50.762;7.000;2024-02-23T09:33:54;12.30;51.50
14884;DHT22;7534;50.762;7.000;2024-02-23T09:36:20;12.70;49.60
14884;DHT22;7534;50.762;7.000;2024-02-23T09:38:47;12.70;49.10
14884;DHT22;7534;50.762;7.000;2024-02-23T09:41:21;13.30;48.10
14884;DHT22;7534;50.762;7.000;2024-02-23T09:43:49;13.90;45.50
14884;DHT22;7534;50.762;7.000;2024-02-23T09:46:18;13.90;46.20
14884;DHT22;7534;50.762;7.000;2024-02-23T09:48:45;14.40;43.20
14884;DHT22;7534;50.762;7.000;2024-02-23T09:51:15;14.90;43.40
14884;DHT22;7534;50.762;7.000;2024-02-23T09:53:41;15.90;40.40
14884;DHT22;7534;50.762;7.000;2024-02-23T09:56:09;17.20;39.10
14884;DHT22;7534;50.762;7.000;2024-02-23T09:58:39;17.20;39.00
14884;DHT22;7534;50.762;7.000;2024-02-23T10:01:07;17.90;37.20
14884;DHT22;7534;50.762;7.000;2024-02-23T10:03:32;18.00;36.60
14884;DHT22;7534;50.762;7.000;2024-02-23T10:05:59;17.80;36.90
14884;DHT22;7534;50.762;7.000;2024-02-23T10:08:27;17.80;37.30
14884;DHT22;7534;50.762;7.000;2024-02-23T10:10:54;17.50;37.80
14884;DHT22;7534;50.762;7.000;2024-02-23T10:13:23;17.20;38.10
14884;DHT22;7534;50.762;7.000;2024-02-23T10:15:52;15.90;39.80
14884;DHT22;7534;50.762;7.000;2024-02-23T10:18:19;14.70;43.00
14884;DHT22;7534;50.762;7.000;2024-02-23T10:20:46;14.60;44.60
14884;DHT22;7534;50.762;7.000;2024-02-23T10:23:12;14.20;44.20
14884;DHT22;7534;50.762;7.000;2024-02-23T10:25:38;13.30;46.80
14884;DHT22;7534;50.762;7.000;2024-02-23T10:28:06;12.30;49.00
14884;DHT22;7534;50.762;7.000;2024-02-23T10:30:32;11.50;51.30
14884;DHT22;7534;50.762;7.000;2024-02-23T10:32:59;10.90;53.00
14884;DHT22;7534;50.762;7.000;2024-02-23T10:35:26;10.60;55.90
14884;DHT22;7534;50.762;7.000;2024-02-23T10:37:56;10.40;55.30
14884;DHT22;7534;50.762;7.000;2024-02-23T10:40:22;10.20;56.20
14884;DHT22;7534;50.762;7.000;2024-02-23T10:42:54;10.10;55.40
14884;DHT22;7534;50.762;7.000;2024-02-23T10:45:22;10.10;56.70
14884;DHT22;7534;50.762;7.000;2024-02-23T10:47:48;10.20;57.00
14884;DHT22;7534;50.762;7.000;2024-02-23T10:50:14;10.20;56.40
14884;DHT22;7534;50.762;7.000;2024-02-23T10:52:44;10.20;57.50
14884;DHT22;7534;50.762;7.000;2024-02-23T10:55:10;10.50;56.80
14884;DHT22;7534;50.762;7.000;2024-02-23T10:57:36;10.50;57.00
14884;DHT22;7534;50.762;7.000;2024-02-23T11:00:04;10.50;58.30
14884;DHT22;7534;50.762;7.000;2024-02-23T11:02:55;10.60;58.20
14884;DHT22;7534;50.762;7.000;2024-02-23T11:05:23;10.50;59.80
14884;DHT22;7534;50.762;7.000;2024-02-23T11:07:49;10.60;60.10
14884;DHT22;7534;50.762;7.000;2024-02-23T11:10:16;10.70;59.70
14884;DHT22;7534;50.762;7.000;2024-02-23T11:12:44;10.80;58.40
14884;DHT22;7534;50.762;7.000;2024-02-23T11:15:26;11.10;58.00
14884;DHT22;7534;50.762;7.000;2024-02-23T11:17:52;11.10;56.50
14884;DHT22;7534;50.762;7.000;2024-02-23T11:20:18;11.00;58.00
14884;DHT22;7534;50.762;7.000;2024-02-23T11:22:43;10.80;57.50
14884;DHT22;7534;50.762;7.000;2024-02-23T11:25:09;10.80;59.40
14884;DHT22;7534;50.762;7.000;2024-02-23T11:27:39;10.50;58.70
14884;DHT22;7534;50.762;7.000;2024-02-23T11:30:09;10.30;59.40
14884;DHT22;7534;50.762;7.000;2024-02-23T11:32:45;10.20;59.60
14884;DHT22;7534;50.762;7.000;2024-02-23T11:35:13;10.10;59.20
14884;DHT22;7534;50.762;7.000;2024-02-23T11:37:54;10.00;59.30
14884;DHT22;7534;50.762;7.000;2024-02-23T11:40:25;10.00;59.60
14884;DHT22;7534;50.762;7.000;2024-02-23T11:42:52;10.20;60.50
14884;DHT22;7534;50.762;7.000;2024-02-23T11:45:19;10.50;57.70
14884;DHT22;7534;50.762;7.000;2024-02-23T11:47:45;10.90;56.00
14884;DHT22;7534;50.762;7.000;2024-02-23T11:50:11;10.90;56.50
14884;DHT22;7534;50.762;7.000;2024-02-23T11:52:40;10.70;56.10
14884;DHT22;7534;50.762;7.000;2024-02-23T11:55:06;10.70;56.50
14884;DHT22;7534;50.762;7.000;2024-02-23T11:57:34;10.60;57.00
14884;DHT22;7534;50.762;7.000;2024-02-23T12:00:04;10.50;56.70
14884;DHT22;7534;50.762;7.000;2024-02-23T12:02:33;10.40;58.70
14884;DHT22;7534;50.762;7.000;2024-02-23T12:05:00;10.60;57.40
14884;DHT22;7534;50.762;7.000;2024-02-23T12:07:27;10.70;58.90
14884;DHT22;7534;50.762;7.000;2024-02-23T12:09:55;10.90;57.00
14884;DHT22;7534;50.762;7.000;2024-02-23T12:12:21;11.10;55.40
14884;DHT22;7534;50.762;7.000;2024-02-23T12:14:47;11.20;54.00
14884;DHT22;7534;50.762;7.000;2024-02-23T12:17:13;11.20;55.20
14884;DHT22;7534;50.762;7.000;2024-02-23T12:19:40;11.10;56.00
14884;DHT22;7534;50.762;7.000;2024-02-23T12:22:05;11.20;55.40
14884;DHT22;7534;50.762;7.000;2024-02-23T12:24:31;11.20;55.90
14884;DHT22;7534;50.762;7.000;2024-02-23T12:26:57;11.30;54.60
14884;DHT22;7534;50.762;7.000;2024-02-23T12:29:23;11.30;54.10
14884;DHT22;7534;50.762;7.000;2024-02-23T12:31:49;11.20;53.30
14884;DHT22;7534;50.762;7.000;2024-02-23T12:34:15;11.10;54.90
14884;DHT22;7534;50.762;7.000;2024-02-23T12:36:41;11.00;55.60
14884;DHT22;7534;50.762;7.000;2024-02-23T12:39:07;11.10;56.10
14884;DHT22;7534;50.762;7.000;2024-02-23T12:41:33;11.00;56.00
14884;DHT22;7534;50.762;7.000;2024-02-23T12:43:59;10.90;56.40
14884;DHT22;7534;50.762;7.000;2024-02-23T12:46:24;10.70;56.60
14884;DHT22;7534;50.762;7.000;2024-02-23T12:48:50;10.70;57.00
14884;DHT22;7534;50.762;7.000;2024-02-23T12:51:16;10.90;57.90
14884;DHT22;7534;50.762;7.000;2024-02-23T12:53:43;11.10;57.30
14884;DHT22;7534;50.762;7.000;2024-02-23T12:56:14;11.30;55.90
14884;DHT22;7534;50.762;7.000;2024-02-23T12:58:42;11.50;54.60
14884;DHT22;7534;50.762;7.000;2024-02-23T13:01:09;11.70;53.40
14884;DHT22;7534;50.762;7.000;2024-02-23T13:03:36;11.80;53.30
14884;DHT22;7534;50.762;7.000;2024-02-23T13:06:04;11.90;51.50
14884;DHT22;7534;50.762;7.000;2024-02-23T13:08:33;11.90;52.90
14884;DHT22;7534;50.762;7.000;2024-02-23T13:10:59;11.90;52.50
14884;DHT22;7534;50.762;7.000;2024-02-23T13:13:25;11.90;51.60
14884;DHT22;7534;50.762;7.000;2024-02-23T13:15:52;12.00;51.60
14884;DHT22;7534;50.762;7.000;2024-02-23T13:18:18;11.90;52.00
14884;DHT22;7534;50.762;7.000;2024-02-23T13:20:44;12.00;52.70
14884;DHT22;7534;50.762;7.000;2024-02-23T13:23:11;12.10;51.80
14884;DHT22;7534;50.762;7.000;2024-02-23T13:25:41;12.30;50.40
14884;DHT22;7534;50.762;7.000;2024-02-23T13:28:07;12.10;49.60
14884;DHT22;7534;50.762;7.000;2024-02-23T13:30:34;11.60;50.90
14884;DHT22;7534;50.762;7.000;2024-02-23T13:33:01;11.40;52.40
14884;DHT22;7534;50.762;7.000;2024-02-23T13:35:27;11.10;53.30
14884;DHT22;7534;50.762;7.000;2024-02-23T13:37:53;11.00;53.50
14884;DHT22;7534;50.762;7.000;2024-02-23T13:40:19;11.00;53.60
14884;DHT22;7534;50.762;7.000;2024-02-23T13:42:45;11.10;54.10
14884;DHT22;7534;50.762;7.000;2024-02-23T13:45:15;11.00;55.50
14884;DHT22;7534;50.762;7.000;2024-02-23T13:47:43;11.00;56.20
14884;DHT22;7534;50.762;7.000;2024-02-23T13:50:20;11.10;56.50
14884;DHT22;7534;50.762;7.000;2024-02-23T13:52:45;11.20;56.30
14884;DHT22;7534;50.762;7.000;2024-02-23T13:55:11;11.20;57.10
14884;DHT22;7534;50.762;7.000;2024-02-23T13:57:37;11.40;57.00
14884;DHT22;7534;50.762;7.000;2024-02-23T14:00:03;11.50;55.20
14884;DHT22;7534;50.762;7.000;2024-02-23T14:02:31;11.30;55.60
14884;DHT22;7534;50.762;7.000;2024-02-23T14:05:01;11.20;56.70
14884;DHT22;7534;50.762;7.000;2024-02-23T14:07:28;11.30;55.50
14884;DHT22;7534;50.762;7.000;2024-02-23T14:09:54;11.40;55.60
14884;DHT22;7534;50.762;7.000;2024-02-23T14:12:20;11.70;52.40
14884;DHT22;7534;50.762;7.000;2024-02-23T14:14:45;11.70;52.40
14884;DHT22;7534;50.762;7.000;2024-02-23T14:17:11;11.50;53.60
14884;DHT22;7534;50.762;7.000;2024-02-23T14:19:37;11.30;54.40
14884;DHT22;7534;50.762;7.000;2024-02-23T14:22:03;11.10;56.20
14884;DHT22;7534;50.762;7.000;2024-02-23T14:24:29;11.10;56.60
14884;DHT22;7534;50.762;7.000;2024-02-23T14:26:54;11.10;58.20
14884;DHT22;7534;50.762;7.000;2024-02-23T14:29:20;11.10;56.80
14884;DHT22;7534;50.762;7.000;2024-02-23T14:31:46;11.00;56.60
14884;DHT22;7534;50.762;7.000;2024-02-23T14:34:11;10.90;56.50
14884;DHT22;7534;50.762;7.000;2024-02-23T14:36:37;10.70;56.50
14884;DHT22;7534;50.762;7.000;2024-02-23T14:39:03;10.60;58.10
14884;DHT22;7534;50.762;7.000;2024-02-23T14:41:30;10.50;58.50
14884;DHT22;7534;50.762;7.000;2024-02-23T14:43:56;10.50;58.70
14884;DHT22;7534;50.762;7.000;2024-02-23T14:46:21;10.50;58.60
14884;DHT22;7534;50.762;7.000;2024-02-23T14:48:47;10.40;59.10
14884;DHT22;7534;50.762;7.000;2024-02-23T14:51:15;10.30;60.00
14884;DHT22;7534;50.762;7.000;2024-02-23T14:53:41;10.30;59.30
14884;DHT22;7534;50.762;7.000;2024-02-23T14:56:08;10.30;59.10
14884;DHT22;7534;50.762;7.000;2024-02-23T14:58:35;10.50;59.00
14884;DHT22;7534;50.762;7.000;2024-02-23T15:01:00;10.60;59.10
14884;DHT22;7534;50.762;7.000;2024-02-23T15:03:26;10.60;58.10
14884;DHT22;7534;50.762;7.000;2024-02-23T15:05:52;10.80;57.60
14884;DHT22;7534;50.762;7.000;2024-02-23T15:08:18;10.80;57.40
14884;DHT22;7534;50.762;7.000;2024-02-23T15:10:44;10.80;56.70
14884;DHT22;7534;50.762;7.000;2024-02-23T15:13:10;10.70;57.30
14884;DHT22;7534;50.762;7.000;2024-02-23T15:15:35;10.60;57.00
14884;DHT22;7534;50.762;7.000;2024-02-23T15:18:04;10.30;57.90
14884;DHT22;7534;50.762;7.000;2024-02-23T15:20:31;10.30;59.30
14884;DHT22;7534;50.762;7.000;2024-02-23T15:22:58;10.30;59.40
14884;DHT22;7534;50.762;7.000;2024-02-23T15:25:24;10.60;58.70
14884;DHT22;7534;50.762;7.000;2024-02-23T15:27:50;10.90;56.70
14884;DHT22;7534;50.762;7.000;2024-02-23T15:30:17;11.10;56.40
14884;DHT22;7534;50.762;7.000;2024-02-23T15:32:43;11.10;56.50
14884;DHT22;7534;50.762;7.000;2024-02-23T15:35:09;11.10;54.80
14884;DHT22;7534;50.762;7.000;2024-02-23T15:37:35;10.80;56.00
14884;DHT22;7534;50.762;7.000;2024-02-23T15:40:01;10.40;57.90
14884;DHT22;7534;50.762;7.000;2024-02-23T15:42:29;10.10;58.50
14884;DHT22;7534;50.762;7.000;2024-02-23T15:44:55;9.90;59.30
14884;DHT22;7534;50.762;7.000;2024-02-23T15:47:22;9.60;61.00
14884;DHT22;7534;50.762;7.000;2024-02-23T15:49:47;9.40;61.20
14884;DHT22;7534;50.762;7.000;2024-02-23T15:52:13;9.30;61.30
14884;DHT22;7534;50.762;7.000;2024-02-23T15:54:39;9.10;62.20
14884;DHT22;7534;50.762;7.000;2024-02-23T15:57:05;9.10;62.70
14884;DHT22;7534;50.762;7.000;2024-02-23T15:59:30;9.00;63.40
14884;DHT22;7534;50.762;7.000;2024-02-23T16:01:56;9.00;64.10
14884;DHT22;7534;50.762;7.000;2024-02-23T16:04:24;9.10;63.90
14884;DHT22;7534;50.762;7.000;2024-02-23T16:06:50;9.30;63.20
14884;DHT22;7534;50.762;7.000;2024-02-23T16:09:15;9.30;63.00
14884;DHT22;7534;50.762;7.000;2024-02-23T16:11:45;9.30;62.60
14884;DHT22;7534;50.762;7.000;2024-02-23T16:14:12;9.40;62.20
14884;DHT22;7534;50.762;7.000;2024-02-23T16:16:37;9.30;62.50
14884;DHT22;7534;50.762;7.000;2024-02-23T16:19:08;9.20;62.80
14884;DHT22;7534;50.762;7.000;2024-02-23T16:21:35;9.10;63.10
14884;DHT22;7534;50.762;7.000;2024-02-23T16:24:04;9.20;62.30
14884;DHT22;7534;50.762;7.000;2024-02-23T16:26:31;9.30;62.00
14884;DHT22;7534;50.762;7.000;2024-02-23T16:29:00;9.40;61.90
14884;DHT22;7534;50.762;7.000;2024-02-23T16:31:26;9.40;62.10
14884;DHT22;7534;50.762;7.000;2024-02-23T16:33:52;9.30;62.40
14884;DHT22;7534;50.762;7.000;2024-02-23T16:36:18;9.20;63.00
14884;DHT22;7534;50.762;7.000;2024-02-23T16:38:43;9.00;64.10
14884;DHT22;7534;50.762;7.000;2024-02-23T16:41:09;8.80;64.90
14884;DHT22;7534;50.762;7.000;2024-02-23T16:43:35;8.60;66.40
14884;DHT22;7534;50.762;7.000;2024-02-23T16:46:00;8.30;67.40
14884;DHT22;7534;50.762;7.000;2024-02-23T16:48:26;8.20;67.70
14884;DHT22;7534;50.762;7.000;2024-02-23T16:50:52;8.00;68.40
14884;DHT22;7534;50.762;7.000;2024-02-23T16:53:18;7.90;69.20
14884;DHT22;7534;50.762;7.000;2024-02-23T16:55:43;7.60;70.30
14884;DHT22;7534;50.762;7.000;2024-02-23T16:58:09;7.40;71.40
14884;DHT22;7534;50.762;7.000;2024-02-23T17:00:35;7.30;71.80
14884;DHT22;7534;50.762;7.000;2024-02-23T17:03:01;7.10;72.50
14884;DHT22;7534;50.762;7.000;2024-02-23T17:05:26;7.00;73.10
14884;DHT22;7534;50.762;7.000;2024-02-23T17:07:52;6.80;74.00
14884;DHT22;7534;50.762;7.000;2024-02-23T17:10:18;6.60;74.70
14884;DHT22;7534;50.762;7.000;2024-02-23T17:12:44;6.50;75.80
14884;DHT22;7534;50.762;7.000;2024-02-23T17:15:18;6.50;76.00
14884;DHT22;7534;50.762;7.000;2024-02-23T17:17:43;6.60;76.30
14884;DHT22;7534;50.762;7.000;2024-02-23T17:20:10;6.80;76.70
14884;DHT22;7534;50.762;7.000;2024-02-23T17:22:36;6.90;76.60
14884;DHT22;7534;50.762;7.000;2024-02-23T17:25:02;6.90;76.70
14884;DHT22;7534;50.762;7.000;2024-02-23T17:27:27;6.90;77.50
14884;DHT22;7534;50.762;7.000;2024-02-23T17:29:53;6.80;77.70
14884;DHT22;7534;50.762;7.000;2024-02-23T17:32:19;6.80;78.30
14884;DHT22;7534;50.762;7.000;2024-02-23T17:34:45;6.80;78.10
14884;DHT22;7534;50.762;7.000;2024-02-23T17:37:11;6.90;77.90
14884;DHT22;7534;50.762;7.000;2024-02-23T17:39:36;6.90;77.70
14884;DHT22;7534;50.762;7.000;2024-02-23T17:42:03;6.90;77.40
14884;DHT22;7534;50.762;7.000;2024-02-23T17:44:29;6.90;77.80
14884;DHT22;7534;50.762;7.000;2024-02-23T17:46:55;6.90;77.80
14884;DHT22;7534;50.762;7.000;2024-02-23T17:49:20;6.80;77.60
14884;DHT22;7534;50.762;7.000;2024-02-23T17:51:46;6.80;77.80
14884;DHT22;7534;50.762;7.000;2024-02-23T17:54:12;6.70;78.00